Time;durP1;ratioP1;P1;durP2;ratioP2;P2;SDS_P1;SDS_P2;PMS_P1;PMS_P2;Temp;Humidity;BMP_temperature;BMP_pressure;BME280_temperature;BME280_humidity;BME280_pressure;Samples;Min_cycle;Max_cycle;Signal;HPM_P1;HPM_P2
2021/08/21 00:00:05;;;;;;;4.28;2.97;;;;;;;;;;5055387;28;20020;-69
2021/08/21 00:02:30;;;;;;;3.50;2.40;;;;;;;;;;5055497;28;20139;-64
2021/08/21 00:04:56;;;;;;;6.07;2.40;;;;;;;;;;5055346;28;20412;-64
2021/08/21 00:07:22;;;;;;;3.47;2.70;;;;;;;;;;5055475;28;20029;-64
2021/08/21 00:09:48;;;;;;;8.38;2.65;;;;;;;;;;5056096;28;20468;-74
2021/08/21 00:12:14;;;;;;;8.43;2.83;;;;;;;;;;5038047;28;20032;-71
2021/08/21 00:14:40;;;;;;;20.50;2.88;;;;;;;;;;5055998;28;20045;-75
2021/08/21 00:17:06;;;;;;;10.23;3.08;;;;;;;;;;5055812;28;20521;-77
2021/08/21 00:19:32;;;;;;;6.32;2.60;;;;;;;;;;5037965;28;20056;-77
2021/08/21 00:21:58;;;;;;;7.32;2.50;;;;;;;;;;5056437;28;20057;-77
2021/08/21 00:24:24;;;;;;;4.72;2.20;;;;;;;;;;5056526;28;20029;-77
2021/08/21 00:26:50;;;;;;;11.55;2.13;;;;;;;;;;5056310;28;20074;-80
2021/08/21 00:29:16;;;;;;;15.95;2.90;;;;;;;;;;5055770;28;20025;-78
2021/08/21 00:31:42;;;;;;;4.75;2.10;;;;;;;;;;5056216;28;20025;-76
2021/08/21 00:34:08;;;;;;;4.65;2.10;;;;;;;;;;5055492;28;20029;-75
2021/08/21 00:36:34;;;;;;;3.75;2.10;;;;;;;;;;5055494;28;20025;-77
2021/08/21 00:39:00;;;;;;;3.63;2.10;;;;;;;;;;5055168;28;20036;-76
2021/08/21 00:41:26;;;;;;;4.63;2.20;;;;;;;;;;5055588;28;20099;-68
2021/08/21 00:43:52;;;;;;;3.78;2.15;;;;;;;;;;5055029;28;20453;-71
2021/08/21 00:46:18;;;;;;;4.43;2.25;;;;;;;;;;5055045;28;20356;-76
2021/08/21 00:48:44;;;;;;;9.45;2.10;;;;;;;;;;5055399;28;20060;-77
2021/08/21 00:51:10;;;;;;;5.97;1.90;;;;;;;;;;5037470;28;20556;-75
2021/08/21 00:53:36;;;;;;;4.50;2.45;;;;;;;;;;5054746;28;20044;-65
2021/08/21 00:56:03;;;;;;;4.30;2.10;;;;;;;;;;5054547;28;20044;-64
2021/08/21 00:58:30;;;;;;;5.75;2.10;;;;;;;;;;5054458;28;20043;-65
2021/08/21 01:00:56;;;;;;;5.40;2.05;;;;;;;;;;5036448;28;20023;-64
2021/08/21 01:03:22;;;;;;;7.03;2.20;;;;;;;;;;5054655;28;20027;-65
2021/08/21 01:05:48;;;;;;;9.98;2.08;;;;;;;;;;5054385;28;20025;-65
2021/08/21 01:08:16;;;;;;;9.90;1.75;;;;;;;;;;5054443;28;20021;-65
2021/08/21 01:10:42;;;;;;;4.90;1.83;;;;;;;;;;5054432;28;20032;-65
2021/08/21 01:13:08;;;;;;;2.35;1.50;;;;;;;;;;5054207;28;20013;-65
2021/08/21 01:15:34;;;;;;;5.90;1.90;;;;;;;;;;5054412;28;20029;-67
2021/08/21 01:18:03;;;;;;;4.07;1.80;;;;;;;;;;5054360;28;20064;-68
2021/08/21 01:20:30;;;;;;;2.28;1.65;;;;;;;;;;5054209;28;20019;-65
2021/08/21 01:22:56;;;;;;;8.93;1.80;;;;;;;;;;5036216;28;20083;-65
2021/08/21 01:25:24;;;;;;;8.70;1.67;;;;;;;;;;5053955;28;20029;-65
2021/08/21 01:27:50;;;;;;;9.10;1.60;;;;;;;;;;5053994;28;20075;-67
2021/08/21 01:30:17;;;;;;;3.75;2.00;;;;;;;;;;5036226;28;20049;-76
2021/08/21 01:32:42;;;;;;;7.50;2.38;;;;;;;;;;5054445;28;20037;-75
2021/08/21 01:35:09;;;;;;;2.15;1.52;;;;;;;;;;5054153;28;20036;-67
2021/08/21 01:37:35;;;;;;;3.15;1.85;;;;;;;;;;5054215;28;20033;-66
2021/08/21 01:40:01;;;;;;;2.45;1.60;;;;;;;;;;5054135;28;20029;-73
2021/08/21 01:42:27;;;;;;;6.07;2.05;;;;;;;;;;5053630;28;20384;-65
2021/08/21 01:44:53;;;;;;;5.95;1.77;;;;;;;;;;5053741;28;20481;-66
2021/08/21 01:47:19;;;;;;;12.13;1.50;;;;;;;;;;5054248;28;20513;-75
2021/08/21 01:49:57;;;;;;;7.22;1.70;;;;;;;;;;5054062;28;20035;-72
2021/08/21 01:52:23;;;;;;;1.85;1.35;;;;;;;;;;5054526;28;20025;-72
2021/08/21 01:54:49;;;;;;;3.22;1.52;;;;;;;;;;5053493;28;20064;-66
2021/08/21 01:57:15;;;;;;;7.22;1.70;;;;;;;;;;5053255;28;20080;-70
2021/08/21 01:59:42;;;;;;;2.10;1.40;;;;;;;;;;5053591;28;20025;-65
2021/08/21 02:02:10;;;;;;;3.15;1.60;;;;;;;;;;5053223;28;20020;-66
2021/08/21 02:04:36;;;;;;;6.00;1.77;;;;;;;;;;5053482;28;20033;-66
2021/08/21 02:07:02;;;;;;;10.65;1.70;;;;;;;;;;5053014;28;20033;-65
2021/08/21 02:09:28;;;;;;;6.35;1.60;;;;;;;;;;5053063;28;20037;-64
2021/08/21 02:11:56;;;;;;;3.00;1.50;;;;;;;;;;5035193;28;20457;-66
2021/08/21 02:14:22;;;;;;;6.10;1.80;;;;;;;;;;5053056;28;20025;-66
2021/08/21 02:16:50;;;;;;;3.10;1.40;;;;;;;;;;5052794;28;20060;-66
2021/08/21 02:19:17;;;;;;;2.15;1.30;;;;;;;;;;5053285;28;20135;-66
2021/08/21 02:21:44;;;;;;;3.05;1.58;;;;;;;;;;5053259;28;20029;-72
2021/08/21 02:24:10;;;;;;;2.22;1.45;;;;;;;;;;5053355;28;20120;-71
2021/08/21 02:26:41;;;;;;;4.28;1.40;;;;;;;;;;5053129;28;20457;-67
2021/08/21 02:29:07;;;;;;;5.80;1.35;;;;;;;;;;5053339;28;20124;-68
2021/08/21 02:31:33;;;;;;;3.63;1.38;;;;;;;;;;5053128;28;20029;-69
2021/08/21 02:33:59;;;;;;;2.78;1.38;;;;;;;;;;5053153;28;20025;-67
2021/08/21 02:36:25;;;;;;;3.47;1.30;;;;;;;;;;5053018;28;20033;-66
2021/08/21 02:38:51;;;;;;;1.92;1.52;;;;;;;;;;5035026;28;20037;-67
2021/08/21 02:41:17;;;;;;;2.53;1.73;;;;;;;;;;5053258;28;20461;-69
2021/08/21 02:43:43;;;;;;;5.85;1.55;;;;;;;;;;5053342;28;20032;-71
2021/08/21 02:46:09;;;;;;;8.25;1.30;;;;;;;;;;5053793;28;20021;-70
2021/08/21 02:48:35;;;;;;;3.08;1.20;;;;;;;;;;5053401;28;20029;-73
2021/08/21 02:51:01;;;;;;;1.50;1.20;;;;;;;;;;5053285;28;20025;-74
2021/08/21 02:53:27;;;;;;;3.42;1.48;;;;;;;;;;5052984;28;20043;-72
2021/08/21 02:55:53;;;;;;;15.43;1.30;;;;;;;;;;5053062;28;20032;-73
2021/08/21 02:58:19;;;;;;;2.28;1.30;;;;;;;;;;5053072;28;20033;-71
2021/08/21 03:00:45;;;;;;;2.95;1.10;;;;;;;;;;5052963;28;20388;-73
2021/08/21 03:03:11;;;;;;;3.25;1.40;;;;;;;;;;5057242;28;20028;-75
2021/08/21 03:05:38;;;;;;;4.10;1.40;;;;;;;;;;5057225;28;20051;-75
2021/08/21 03:08:04;;;;;;;3.95;1.38;;;;;;;;;;5057215;28;20033;-75
2021/08/21 03:10:30;;;;;;;1.63;1.05;;;;;;;;;;5056998;28;20021;-77
2021/08/21 03:12:57;;;;;;;1.60;1.30;;;;;;;;;;5057265;28;20392;-78
2021/08/21 03:15:24;;;;;;;4.53;1.25;;;;;;;;;;5057891;28;20021;-75
2021/08/21 03:17:50;;;;;;;1.92;1.20;;;;;;;;;;5076857;28;20044;-74
2021/08/21 03:20:16;;;;;;;6.28;1.38;;;;;;;;;;5077060;28;20078;-76
2021/08/21 03:22:42;;;;;;;2.35;1.15;;;;;;;;;;5077351;28;20032;-73
2021/08/21 03:25:12;;;;;;;2.75;1.02;;;;;;;;;;5076666;28;20017;-75
2021/08/21 03:27:42;;;;;;;6.10;1.50;;;;;;;;;;5076646;28;20024;-73
2021/08/21 03:30:09;;;;;;;5.90;1.50;;;;;;;;;;5076249;28;20017;-64
2021/08/21 03:32:35;;;;;;;4.13;1.30;;;;;;;;;;5076376;28;20025;-74
2021/08/21 03:35:01;;;;;;;7.63;1.33;;;;;;;;;;5058536;28;20028;-70
2021/08/21 03:37:27;;;;;;;5.13;1.10;;;;;;;;;;5076259;28;20032;-66
2021/08/21 03:39:53;;;;;;;8.15;1.35;;;;;;;;;;5076345;28;20024;-64
2021/08/21 03:42:19;;;;;;;5.10;1.67;;;;;;;;;;5058488;28;20016;-74
2021/08/21 03:44:45;;;;;;;5.28;1.30;;;;;;;;;;5076362;28;20031;-73
2021/08/21 03:47:11;;;;;;;4.50;1.25;;;;;;;;;;5076727;28;20051;-73
2021/08/21 03:49:38;;;;;;;10.32;1.45;;;;;;;;;;5075800;28;20420;-67
2021/08/21 03:52:04;;;;;;;4.18;1.65;;;;;;;;;;5076116;28;20024;-75
2021/08/21 03:54:30;;;;;;;2.03;1.15;;;;;;;;;;5076260;28;20435;-73
2021/08/21 03:56:56;;;;;;;5.63;1.30;;;;;;;;;;5075792;28;20352;-78
2021/08/21 03:59:22;;;;;;;9.35;2.28;;;;;;;;;;5076747;28;20456;-79
2021/08/21 04:01:48;;;;;;;5.55;1.75;;;;;;;;;;5076499;28;20058;-76
2021/08/21 04:04:14;;;;;;;4.45;1.30;;;;;;;;;;5076399;28;20031;-77
2021/08/21 04:06:41;;;;;;;3.33;1.40;;;;;;;;;;5075929;28;20393;-75
2021/08/21 04:09:07;;;;;;;6.78;1.42;;;;;;;;;;5076192;28;20029;-68
2021/08/21 04:11:33;;;;;;;7.10;1.65;;;;;;;;;;5075770;28;20032;-75
2021/08/21 04:13:59;;;;;;;6.20;1.52;;;;;;;;;;5074604;28;20016;-77
2021/08/21 04:16:25;;;;;;;6.35;1.90;;;;;;;;;;5075882;28;20484;-76
2021/08/21 04:18:51;;;;;;;7.20;1.77;;;;;;;;;;5057411;28;20048;-63
2021/08/21 04:21:17;;;;;;;7.43;1.92;;;;;;;;;;5075086;28;20063;-63
2021/08/21 04:23:43;;;;;;;6.57;1.90;;;;;;;;;;5075071;28;20024;-63
2021/08/21 04:26:09;;;;;;;6.65;2.00;;;;;;;;;;5075032;28;20027;-63
2021/08/21 04:28:35;;;;;;;5.57;1.90;;;;;;;;;;5074950;28;20395;-63
2021/08/21 04:31:01;;;;;;;2.78;2.00;;;;;;;;;;5075154;28;20032;-63
2021/08/21 04:33:27;;;;;;;2.20;1.60;;;;;;;;;;5075074;28;20111;-65
2021/08/21 04:35:54;;;;;;;6.30;1.77;;;;;;;;;;5074906;28;20078;-64
2021/08/21 04:38:20;;;;;;;6.15;2.13;;;;;;;;;;5074923;28;20111;-64
2021/08/21 04:40:49;;;;;;;4.70;1.77;;;;;;;;;;5074855;28;20089;-64
2021/08/21 04:43:16;;;;;;;2.08;1.48;;;;;;;;;;5074736;28;20028;-64
2021/08/21 04:45:42;;;;;;;3.25;2.10;;;;;;;;;;5074888;28;20021;-68
2021/08/21 04:48:08;;;;;;;4.35;1.92;;;;;;;;;;5075012;28;20028;-71
2021/08/21 04:50:36;;;;;;;2.28;1.83;;;;;;;;;;5075043;28;20021;-74
2021/08/21 04:53:02;;;;;;;3.97;2.20;;;;;;;;;;5075414;28;20024;-73
2021/08/21 04:55:28;;;;;;;3.00;2.30;;;;;;;;;;5075031;28;20074;-72
2021/08/21 04:57:55;;;;;;;2.78;1.80;;;;;;;;;;5074793;28;20037;-67
2021/08/21 05:00:21;;;;;;;3.05;2.08;;;;;;;;;;5074562;28;20020;-65
2021/08/21 05:02:47;;;;;;;4.60;2.20;;;;;;;;;;5074428;28;20032;-65
2021/08/21 05:05:13;;;;;;;4.28;2.28;;;;;;;;;;5074410;28;20028;-64
2021/08/21 05:07:48;;;;;;;3.67;2.20;;;;;;;;;;5074255;28;20039;-64
2021/08/21 05:10:15;;;;;;;4.45;1.85;;;;;;;;;;5074383;28;20032;-65
2021/08/21 05:12:41;;;;;;;5.38;2.10;;;;;;;;;;5074186;28;20021;-64
2021/08/21 05:15:08;;;;;;;5.82;2.00;;;;;;;;;;5074164;28;20368;-66
2021/08/21 05:17:35;;;;;;;2.42;2.20;;;;;;;;;;5073958;28;20049;-66
2021/08/21 05:20:08;;;;;;;2.70;1.90;;;;;;;;;;5074226;28;20025;-69
2021/08/21 05:22:48;;;;;;;11.88;2.20;;;;;;;;;;5056950;28;20028;-77
2021/08/21 05:25:15;;;;;;;3.33;2.33;;;;;;;;;;5074677;28;20062;-77
2021/08/21 05:27:41;;;;;;;4.40;2.08;;;;;;;;;;5075415;28;20063;-76
2021/08/21 05:30:07;;;;;;;3.17;2.47;;;;;;;;;;5074670;28;20035;-76
2021/08/21 05:32:34;;;;;;;6.55;2.60;;;;;;;;;;5075122;28;20017;-79
2021/08/21 05:35:00;;;;;;;6.45;2.50;;;;;;;;;;5075910;28;20020;-80
2021/08/21 05:37:26;;;;;;;4.45;2.10;;;;;;;;;;5075104;28;20375;-72
2021/08/21 05:39:52;;;;;;;2.60;2.30;;;;;;;;;;5074256;28;20025;-74
2021/08/21 05:42:18;;;;;;;3.75;2.47;;;;;;;;;;5074706;28;20028;-64
2021/08/21 05:44:44;;;;;;;6.90;2.45;;;;;;;;;;5073499;28;20034;-63
2021/08/21 05:47:10;;;;;;;4.18;2.25;;;;;;;;;;5073741;28;20472;-63
2021/08/21 05:49:36;;;;;;;7.40;2.60;;;;;;;;;;5073538;28;20076;-64
2021/08/21 05:52:03;;;;;;;5.13;2.72;;;;;;;;;;5073566;28;20071;-63
2021/08/21 05:54:29;;;;;;;2.80;2.47;;;;;;;;;;5073255;28;20040;-64
2021/08/21 05:56:58;;;;;;;4.50;2.75;;;;;;;;;;5073325;28;20017;-76
2021/08/21 05:59:24;;;;;;;6.32;3.13;;;;;;;;;;5074030;28;20095;-76
2021/08/21 06:01:50;;;;;;;5.80;2.50;;;;;;;;;;5073337;28;20052;-63
2021/08/21 06:04:16;;;;;;;4.28;2.63;;;;;;;;;;5073342;28;20028;-63
2021/08/21 06:06:42;;;;;;;9.73;2.92;;;;;;;;;;5073156;28;20027;-67
2021/08/21 06:09:08;;;;;;;9.40;3.10;;;;;;;;;;5073066;28;20073;-75
2021/08/21 06:11:34;;;;;;;9.13;2.85;;;;;;;;;;5073613;28;20029;-73
2021/08/21 06:14:00;;;;;;;8.48;2.80;;;;;;;;;;5073521;28;20110;-71
2021/08/21 06:16:26;;;;;;;3.83;2.85;;;;;;;;;;5057023;28;20055;-64
2021/08/21 06:18:52;;;;;;;5.50;3.08;;;;;;;;;;5053289;28;20037;-65
2021/08/21 06:21:18;;;;;;;6.60;3.28;;;;;;;;;;5052842;28;20492;-73
2021/08/21 06:23:44;;;;;;;7.70;3.00;;;;;;;;;;5053005;28;20481;-65
2021/08/21 06:26:10;;;;;;;6.93;3.50;;;;;;;;;;5052812;28;20025;-65
2021/08/21 06:28:36;;;;;;;5.97;2.97;;;;;;;;;;5053538;28;20029;-70
2021/08/21 06:31:02;;;;;;;4.63;2.70;;;;;;;;;;5052764;28;20415;-66
2021/08/21 06:33:30;;;;;;;3.70;2.92;;;;;;;;;;5034777;28;20040;-64
2021/08/21 06:35:56;;;;;;;3.78;2.72;;;;;;;;;;5052149;28;20036;-67
2021/08/21 06:38:22;;;;;;;10.73;2.92;;;;;;;;;;5049733;28;20037;-67
2021/08/21 06:40:48;;;;;;;5.32;3.10;;;;;;;;;;5041028;28;20060;-66
2021/08/21 06:43:14;;;;;;;3.55;2.67;;;;;;;;;;5052136;28;20033;-63
2021/08/21 06:45:40;;;;;;;10.20;3.00;;;;;;;;;;5052706;28;20036;-64
2021/08/21 06:48:06;;;;;;;10.13;2.90;;;;;;;;;;5052414;28;20032;-65
2021/08/21 06:50:33;;;;;;;4.95;3.45;;;;;;;;;;5052072;28;20483;-66
2021/08/21 06:53:03;;;;;;;5.80;3.35;;;;;;;;;;5052100;28;20021;-69
2021/08/21 06:55:29;;;;;;;8.15;3.85;;;;;;;;;;5051236;28;20033;-67
2021/08/21 06:57:55;;;;;;;5.03;3.22;;;;;;;;;;5051293;28;20087;-64
2021/08/21 07:00:21;;;;;;;4.18;3.35;;;;;;;;;;5063714;28;20033;-63
2021/08/21 07:02:47;;;;;;;4.57;3.20;;;;;;;;;;5053967;28;20407;-63
2021/08/21 07:05:13;;;;;;;6.82;4.03;;;;;;;;;;5052585;28;20029;-64
2021/08/21 07:07:39;;;;;;;5.15;3.92;;;;;;;;;;5052035;28;20068;-70
2021/08/21 07:10:05;;;;;;;5.43;3.85;;;;;;;;;;5051939;28;20033;-65
2021/08/21 07:12:31;;;;;;;4.88;3.90;;;;;;;;;;5052137;28;20411;-66
2021/08/21 07:14:57;;;;;;;14.93;5.43;;;;;;;;;;5051693;28;20017;-67
2021/08/21 07:17:23;;;;;;;11.23;6.60;;;;;;;;;;5068760;28;20115;-66
2021/08/21 07:19:49;;;;;;;15.85;7.85;;;;;;;;;;5072173;28;20039;-65
2021/08/21 07:22:15;;;;;;;24.52;7.22;;;;;;;;;;5072303;28;20028;-66
2021/08/21 07:24:41;;;;;;;22.40;8.35;;;;;;;;;;5071800;28;20035;-68
2021/08/21 07:27:07;;;;;;;11.18;7.53;;;;;;;;;;5071972;28;20047;-67
2021/08/21 07:29:33;;;;;;;10.73;6.85;;;;;;;;;;5072109;28;20078;-68
2021/08/21 07:31:59;;;;;;;14.30;8.10;;;;;;;;;;5072265;28;20025;-64
2021/08/21 07:34:25;;;;;;;21.50;7.63;;;;;;;;;;5071251;28;20021;-64
2021/08/21 07:36:51;;;;;;;24.55;8.48;;;;;;;;;;5053192;28;20025;-64
2021/08/21 07:39:18;;;;;;;16.40;8.23;;;;;;;;;;5071030;28;20029;-68
2021/08/21 07:41:44;;;;;;;17.92;8.82;;;;;;;;;;5071382;28;20025;-69
2021/08/21 07:44:11;;;;;;;16.83;9.65;;;;;;;;;;5072344;28;20046;-67
2021/08/21 07:46:37;;;;;;;18.45;10.63;;;;;;;;;;5072257;28;20059;-67
2021/08/21 07:49:03;;;;;;;18.67;11.32;;;;;;;;;;5076078;28;20044;-68
2021/08/21 07:51:29;;;;;;;21.55;11.43;;;;;;;;;;5075527;28;20037;-65
2021/08/21 07:53:55;;;;;;;21.05;13.57;;;;;;;;;;5075205;28;20032;-64
2021/08/21 07:56:21;;;;;;;23.02;13.57;;;;;;;;;;5075102;28;20024;-65
2021/08/21 07:58:47;;;;;;;22.15;12.93;;;;;;;;;;5075667;28;20028;-65
2021/08/21 08:01:13;;;;;;;24.70;14.65;;;;;;;;;;5075638;28;20069;-66
2021/08/21 08:03:38;;;;;;;21.73;13.38;;;;;;;;;;5075377;28;20056;-66
2021/08/21 08:06:04;;;;;;;18.70;13.73;;;;;;;;;;5075306;28;20166;-69
2021/08/21 08:08:30;;;;;;;25.30;16.73;;;;;;;;;;5075122;28;20032;-65
2021/08/21 08:10:57;;;;;;;24.25;14.20;;;;;;;;;;5074888;28;20456;-67
2021/08/21 08:13:23;;;;;;;27.13;15.98;;;;;;;;;;5074396;28;20105;-65
2021/08/21 08:15:50;;;;;;;22.70;15.32;;;;;;;;;;5074354;28;20079;-66
2021/08/21 08:18:16;;;;;;;24.98;15.82;;;;;;;;;;5074999;28;20126;-65
2021/08/21 08:20:42;;;;;;;26.83;15.98;;;;;;;;;;5075320;28;20025;-65
2021/08/21 08:23:08;;;;;;;23.58;14.88;;;;;;;;;;5075014;28;20017;-65
2021/08/21 08:25:34;;;;;;;23.98;14.55;;;;;;;;;;5074500;28;20357;-66
2021/08/21 08:28:00;;;;;;;21.48;13.98;;;;;;;;;;5075065;28;20032;-65
2021/08/21 08:30:26;;;;;;;17.75;12.57;;;;;;;;;;5075037;28;20528;-66
2021/08/21 08:32:52;;;;;;;19.85;12.60;;;;;;;;;;5056876;28;20056;-67
2021/08/21 08:35:18;;;;;;;21.95;12.90;;;;;;;;;;5074935;28;20074;-66
2021/08/21 08:37:44;;;;;;;20.20;12.75;;;;;;;;;;5075076;28;20033;-65
2021/08/21 08:40:11;;;;;;;18.52;12.30;;;;;;;;;;5074583;28;20487;-69
2021/08/21 08:42:41;;;;;;;18.45;11.68;;;;;;;;;;5074350;28;20032;-67
2021/08/21 08:45:07;;;;;;;16.80;11.68;;;;;;;;;;5056876;28;20031;-65
2021/08/21 08:47:35;;;;;;;19.17;12.38;;;;;;;;;;5074433;28;20031;-65
2021/08/21 08:50:04;;;;;;;18.70;11.20;;;;;;;;;;5074482;28;20044;-66
2021/08/21 08:52:30;;;;;;;17.88;11.27;;;;;;;;;;5074505;28;20067;-65
2021/08/21 08:54:56;;;;;;;19.00;10.93;;;;;;;;;;5074249;28;20028;-66
2021/08/21 08:57:35;;;;;;;17.35;10.25;;;;;;;;;;5074157;28;20038;-67
2021/08/21 09:00:02;;;;;;;18.65;11.68;;;;;;;;;;5073371;28;20024;-68
2021/08/21 09:02:35;;;;;;;20.05;12.38;;;;;;;;;;5074640;28;20012;-71
2021/08/21 09:05:03;;;;;;;19.20;12.20;;;;;;;;;;5074877;28;20024;-67
2021/08/21 09:07:44;;;;;;;22.25;12.63;;;;;;;;;;5074159;28;20032;-72
2021/08/21 09:10:23;;;;;;;18.08;10.85;;;;;;;;;;5074267;28;20055;-69
2021/08/21 09:12:51;;;;;;;14.25;9.63;;;;;;;;;;5070468;28;20057;-68
2021/08/21 09:15:23;;;;;;;16.77;10.18;;;;;;;;;;5074395;28;20026;-72
2021/08/21 09:18:05;;;;;;;23.90;9.60;;;;;;;;;;5073916;28;20036;-66
2021/08/21 09:20:31;;;;;;;24.58;10.60;;;;;;;;;;5074062;28;20029;-69
2021/08/21 09:23:15;;;;;;;27.63;10.45;;;;;;;;;;5073823;28;20029;-68
2021/08/21 09:25:41;;;;;;;20.75;12.02;;;;;;;;;;5074683;28;20400;-68
2021/08/21 09:28:15;;;;;;;20.25;12.13;;;;;;;;;;5056492;28;20036;-68
2021/08/21 09:30:41;;;;;;;19.75;10.50;;;;;;;;;;5066429;28;20025;-80
2021/08/21 09:33:07;;;;;;;26.73;12.18;;;;;;;;;;5073936;28;20025;-67
2021/08/21 09:35:33;;;;;;;24.83;10.98;;;;;;;;;;5073752;28;20543;-68
2021/08/21 09:38:02;;;;;;;20.95;10.15;;;;;;;;;;5073794;28;20032;-76
2021/08/21 09:40:31;;;;;;;25.90;12.02;;;;;;;;;;5073909;28;20016;-72
2021/08/21 09:42:58;;;;;;;18.35;9.38;;;;;;;;;;5073489;28;20020;-67
2021/08/21 09:45:25;;;;;;;30.65;9.38;;;;;;;;;;5055727;28;20028;-75
2021/08/21 09:48:01;;;;;;;35.10;8.80;;;;;;;;;;5073918;28;20032;-74
2021/08/21 09:50:27;;;;;;;27.45;8.93;;;;;;;;;;5073228;28;20019;-75
2021/08/21 09:53:00;;;;;;;20.42;9.15;;;;;;;;;;5074392;28;20021;-69
2021/08/21 09:55:27;;;;;;;21.58;8.30;;;;;;;;;;5073449;28;20051;-66
2021/08/21 09:58:04;;;;;;;16.13;7.93;;;;;;;;;;5072712;28;20112;-66
2021/08/21 10:00:31;;;;;;;13.82;8.15;;;;;;;;;;5072867;28;20086;-67
2021/08/21 10:02:57;;;;;;;19.08;8.23;;;;;;;;;;5055038;28;20063;-65
2021/08/21 10:05:24;;;;;;;17.38;7.85;;;;;;;;;;5073007;28;20024;-65
2021/08/21 10:07:54;;;;;;;10.98;7.75;;;;;;;;;;5072715;28;20056;-66
2021/08/21 10:10:23;;;;;;;12.32;7.50;;;;;;;;;;5072690;28;20025;-66
2021/08/21 10:12:53;;;;;;;16.67;7.68;;;;;;;;;;5072860;28;20028;-66
2021/08/21 10:15:20;;;;;;;16.55;7.45;;;;;;;;;;5073411;28;20483;-66
2021/08/21 10:17:47;;;;;;;14.35;7.63;;;;;;;;;;5072712;28;20116;-65
2021/08/21 10:20:13;;;;;;;12.15;6.80;;;;;;;;;;5072849;28;20558;-67
2021/08/21 10:22:40;;;;;;;13.38;7.03;;;;;;;;;;5072590;28;20028;-66
2021/08/21 10:25:08;;;;;;;68.18;7.22;;;;;;;;;;5072995;28;20443;-65
2021/08/21 10:27:54;;;;;;;33.83;6.38;;;;;;;;;;5072959;28;20048;-66
2021/08/21 10:30:22;;;;;;;29.40;6.70;;;;;;;;;;5072714;28;20135;-63
2021/08/21 10:32:59;;;;;;;30.83;6.20;;;;;;;;;;5073069;28;20348;-64
2021/08/21 10:35:45;;;;;;;37.10;5.95;;;;;;;;;;5072804;28;20040;-63
2021/08/21 10:38:27;;;;;;;37.58;5.55;;;;;;;;;;5072343;28;20029;-63
2021/08/21 10:40:53;;;;;;;17.35;5.80;;;;;;;;;;5072642;28;20460;-63
2021/08/21 10:43:39;;;;;;;35.80;5.30;;;;;;;;;;5072756;28;20040;-64
2021/08/21 10:46:05;;;;;;;18.95;5.03;;;;;;;;;;5072173;28;20048;-66
2021/08/21 10:48:37;;;;;;;30.02;4.47;;;;;;;;;;5072014;28;20035;-63
2021/08/21 10:51:23;;;;;;;13.20;4.68;;;;;;;;;;5072378;28;20025;-63
2021/08/21 10:53:49;;;;;;;10.93;4.70;;;;;;;;;;5053370;28;20060;-64
2021/08/21 10:56:32;;;;;;;21.27;4.03;;;;;;;;;;5071923;28;20427;-64
2021/08/21 10:58:58;;;;;;;13.35;4.32;;;;;;;;;;5041020;28;20487;-65
2021/08/21 11:01:24;;;;;;;11.85;3.80;;;;;;;;;;5072047;28;20028;-64
2021/08/21 11:03:50;;;;;;;5.97;3.00;;;;;;;;;;5072277;28;20442;-64
2021/08/21 11:06:17;;;;;;;6.70;3.25;;;;;;;;;;5072111;28;20051;-63
2021/08/21 11:08:43;;;;;;;9.18;3.50;;;;;;;;;;5071877;28;20020;-66
2021/08/21 11:11:27;;;;;;;10.68;3.70;;;;;;;;;;5072683;28;20025;-64
2021/08/21 11:14:21;;;;;;;7.85;2.85;;;;;;;;;;5072244;28;20033;-63
2021/08/21 11:16:54;;;;;;;5.78;3.55;;;;;;;;;;5072115;28;20087;-63
2021/08/21 11:19:26;;;;;;;12.85;4.97;;;;;;;;;;5072306;28;20474;-63
2021/08/21 11:22:11;;;;;;;17.10;3.42;;;;;;;;;;5070146;28;20052;-63
2021/08/21 11:24:56;;;;;;;5.13;3.28;;;;;;;;;;5076321;28;20039;-63
2021/08/21 11:27:25;;;;;;;7.85;3.60;;;;;;;;;;5076405;28;20082;-63
2021/08/21 11:30:04;;;;;;;6.95;3.03;;;;;;;;;;5076278;28;20353;-63
2021/08/21 11:32:30;;;;;;;6.05;3.33;;;;;;;;;;5076251;28;20537;-63
2021/08/21 11:34:57;;;;;;;6.97;3.17;;;;;;;;;;5075935;28;20024;-63
2021/08/21 11:37:23;;;;;;;9.23;3.20;;;;;;;;;;5073636;28;20041;-63
2021/08/21 11:39:55;;;;;;;7.75;2.85;;;;;;;;;;5075804;28;20056;-62
2021/08/21 11:42:22;;;;;;;8.02;3.35;;;;;;;;;;5058033;28;20040;-62
2021/08/21 11:44:55;;;;;;;8.15;2.92;;;;;;;;;;5075880;28;20020;-63
2021/08/21 11:47:30;;;;;;;8.50;3.55;;;;;;;;;;5057847;28;20421;-63
2021/08/21 11:49:56;;;;;;;5.70;2.90;;;;;;;;;;5057783;28;20107;-63
2021/08/21 11:52:22;;;;;;;7.38;2.97;;;;;;;;;;5075520;28;20021;-63
2021/08/21 11:54:49;;;;;;;5.72;3.45;;;;;;;;;;5075295;28;20090;-63
2021/08/21 11:57:15;;;;;;;5.60;3.55;;;;;;;;;;5074586;28;20020;-63
2021/08/21 11:59:41;;;;;;;14.02;3.38;;;;;;;;;;5075070;28;20025;-63
2021/08/21 12:02:10;;;;;;;20.23;3.63;;;;;;;;;;5075422;28;20021;-63
2021/08/21 12:04:36;;;;;;;16.60;2.83;;;;;;;;;;5057399;28;20128;-63
2021/08/21 12:07:03;;;;;;;8.40;2.88;;;;;;;;;;5075617;28;20056;-62
2021/08/21 12:09:29;;;;;;;22.40;4.05;;;;;;;;;;5075299;28;20032;-62
2021/08/21 12:11:56;;;;;;;10.23;3.30;;;;;;;;;;5075658;28;20025;-61
2021/08/21 12:14:23;;;;;;;13.30;3.20;;;;;;;;;;5075286;28;20504;-62
2021/08/21 12:16:50;;;;;;;17.83;3.22;;;;;;;;;;5057024;28;20094;-65
2021/08/21 12:19:18;;;;;;;13.32;3.88;;;;;;;;;;5072975;28;20060;-62
2021/08/21 12:21:44;;;;;;;7.95;3.78;;;;;;;;;;5075214;28;20478;-62
2021/08/21 12:24:11;;;;;;;7.00;3.60;;;;;;;;;;5075339;28;20024;-62
2021/08/21 12:26:44;;;;;;;7.82;4.28;;;;;;;;;;5075241;28;20108;-62
2021/08/21 12:29:21;;;;;;;5.93;4.05;;;;;;;;;;5075156;28;20020;-62
2021/08/21 12:31:48;;;;;;;7.68;3.65;;;;;;;;;;5074972;28;20059;-62
2021/08/21 12:34:16;;;;;;;6.18;3.42;;;;;;;;;;5073892;28;20020;-64
2021/08/21 12:36:43;;;;;;;7.85;3.40;;;;;;;;;;5074981;28;20024;-66
2021/08/21 12:39:10;;;;;;;4.93;3.10;;;;;;;;;;5075044;28;20052;-66
2021/08/21 12:41:56;;;;;;;6.70;3.58;;;;;;;;;;5074785;28;20027;-63
2021/08/21 12:44:33;;;;;;;6.22;3.90;;;;;;;;;;5074288;28;20021;-62
2021/08/21 12:47:01;;;;;;;5.07;3.30;;;;;;;;;;5074510;28;20021;-62
2021/08/21 12:49:28;;;;;;;6.95;3.17;;;;;;;;;;5074092;28;20507;-63
2021/08/21 12:51:56;;;;;;;6.22;3.15;;;;;;;;;;5056217;28;20472;-64
2021/08/21 12:54:27;;;;;;;5.03;3.50;;;;;;;;;;5073169;28;20487;-67
2021/08/21 12:57:07;;;;;;;6.22;3.10;;;;;;;;;;5074116;28;20063;-67
2021/08/21 12:59:33;;;;;;;10.07;3.47;;;;;;;;;;5072932;28;20033;-63
2021/08/21 13:02:03;;;;;;;6.40;3.80;;;;;;;;;;5073786;28;20025;-66
2021/08/21 13:04:29;;;;;;;6.80;3.88;;;;;;;;;;5073852;28;20028;-65
2021/08/21 13:06:59;;;;;;;7.50;3.42;;;;;;;;;;5074009;28;20031;-67
2021/08/21 13:09:25;;;;;;;8.75;3.72;;;;;;;;;;5073763;28;20034;-67
2021/08/21 13:11:51;;;;;;;4.80;3.58;;;;;;;;;;5073767;28;20020;-65
2021/08/21 13:14:17;;;;;;;9.23;3.90;;;;;;;;;;5073476;28;20025;-65
2021/08/21 13:16:46;;;;;;;23.00;4.70;;;;;;;;;;5061901;28;20056;-65
2021/08/21 13:19:12;;;;;;;15.73;4.60;;;;;;;;;;5052999;28;20040;-67
2021/08/21 13:21:38;;;;;;;14.38;4.10;;;;;;;;;;5052809;28;20025;-63
2021/08/21 13:24:04;;;;;;;11.68;4.95;;;;;;;;;;5054016;28;20100;-64
2021/08/21 13:26:34;;;;;;;22.13;5.18;;;;;;;;;;5036211;28;20021;-67
2021/08/21 13:29:01;;;;;;;15.68;4.15;;;;;;;;;;5054143;28;20052;-64
2021/08/21 13:31:27;;;;;;;17.10;5.05;;;;;;;;;;5053953;28;20036;-63
2021/08/21 13:33:52;;;;;;;14.95;4.80;;;;;;;;;;5053755;28;20037;-64
2021/08/21 13:36:19;;;;;;;7.30;4.15;;;;;;;;;;5053885;28;20032;-63
2021/08/21 13:38:45;;;;;;;7.43;4.70;;;;;;;;;;5035746;28;20076;-63
2021/08/21 13:41:11;;;;;;;7.18;4.55;;;;;;;;;;5052603;28;20488;-66
2021/08/21 13:43:37;;;;;;;5.82;4.35;;;;;;;;;;5053124;28;20028;-66
2021/08/21 13:46:03;;;;;;;11.00;4.78;;;;;;;;;;5053234;28;20415;-64
2021/08/21 13:48:30;;;;;;;9.13;4.15;;;;;;;;;;5052948;28;20029;-65
2021/08/21 13:50:56;;;;;;;7.75;4.68;;;;;;;;;;5052561;28;20100;-66
2021/08/21 13:53:22;;;;;;;11.73;4.25;;;;;;;;;;5052808;28;20024;-67
2021/08/21 13:55:48;;;;;;;7.97;3.90;;;;;;;;;;5052646;28;20032;-66
2021/08/21 13:58:14;;;;;;;12.60;4.03;;;;;;;;;;5052736;28;20033;-68
2021/08/21 14:00:40;;;;;;;6.47;4.57;;;;;;;;;;5052990;28;20067;-67
2021/08/21 14:03:06;;;;;;;6.18;4.68;;;;;;;;;;5053094;28;20033;-66
2021/08/21 14:05:32;;;;;;;5.47;4.00;;;;;;;;;;5052837;28;20048;-66
2021/08/21 14:07:58;;;;;;;8.30;4.43;;;;;;;;;;5035103;28;20025;-66
2021/08/21 14:10:24;;;;;;;7.97;4.35;;;;;;;;;;5052731;28;20075;-63
2021/08/21 14:12:50;;;;;;;6.43;4.00;;;;;;;;;;5063412;28;20028;-64
2021/08/21 14:15:16;;;;;;;5.68;3.80;;;;;;;;;;5055237;28;20435;-66
2021/08/21 14:17:42;;;;;;;6.05;4.13;;;;;;;;;;5071642;28;20063;-63
2021/08/21 14:20:09;;;;;;;5.22;3.70;;;;;;;;;;5072755;28;20537;-63
2021/08/21 14:22:35;;;;;;;6.03;3.92;;;;;;;;;;5072924;28;20024;-63
2021/08/21 14:25:02;;;;;;;5.43;3.55;;;;;;;;;;5072766;28;20487;-62
2021/08/21 14:27:28;;;;;;;5.72;3.38;;;;;;;;;;5072718;28;20466;-63
2021/08/21 14:29:53;;;;;;;4.18;3.10;;;;;;;;;;5054892;28;20234;-63
2021/08/21 14:32:20;;;;;;;6.90;3.55;;;;;;;;;;5072574;28;20037;-62
2021/08/21 14:34:46;;;;;;;6.45;2.88;;;;;;;;;;5072732;28;20086;-63
2021/08/21 14:37:11;;;;;;;5.00;3.50;;;;;;;;;;5072314;28;20029;-62